createdAt,value
2023-02-05T00:00:13.405Z,16.55
2023-02-05T00:00:44.810Z,16.55
2023-02-05T00:01:16.201Z,16.54
2023-02-05T00:01:47.664Z,16.54
2023-02-05T00:02:19.248Z,16.53
2023-02-05T00:02:50.663Z,16.52
2023-02-05T00:03:22.137Z,16.53
2023-02-05T00:03:53.543Z,16.52
2023-02-05T00:04:24.953Z,16.51
2023-02-05T00:04:56.393Z,16.50
2023-02-05T00:05:27.795Z,16.51
2023-02-05T00:05:59.195Z,16.50
2023-02-05T00:06:30.583Z,16.48
2023-02-05T00:07:01.980Z,16.49
2023-02-05T00:07:33.380Z,16.48
2023-02-05T00:08:04.794Z,16.48
2023-02-05T00:08:36.214Z,16.48
2023-02-05T00:09:07.615Z,16.48
2023-02-05T00:09:39.011Z,16.46
2023-02-05T00:10:10.406Z,16.46
2023-02-05T00:10:41.842Z,16.45
2023-02-05T00:11:13.260Z,16.45
2023-02-05T00:11:44.656Z,16.45
2023-02-05T00:12:16.078Z,16.44
2023-02-05T00:12:47.491Z,16.44
2023-02-05T00:13:18.914Z,16.44
2023-02-05T00:13:50.314Z,16.44
2023-02-05T00:14:21.726Z,16.43
2023-02-05T00:14:53.171Z,16.41
2023-02-05T00:15:24.606Z,16.41
2023-02-05T00:15:56.027Z,16.41
2023-02-05T00:16:27.443Z,16.41
2023-02-05T00:16:58.874Z,16.40
2023-02-05T00:17:30.298Z,16.39
2023-02-05T00:18:01.706Z,16.40
2023-02-05T00:18:33.113Z,16.40
2023-02-05T00:19:04.536Z,16.40
2023-02-05T00:19:35.960Z,16.38
2023-02-05T00:20:07.365Z,16.38
2023-02-05T00:20:38.762Z,16.38
2023-02-05T00:21:10.178Z,16.38
2023-02-05T00:21:41.587Z,16.37
2023-02-05T00:22:12.975Z,16.36
2023-02-05T00:22:44.390Z,16.37
2023-02-05T00:23:15.811Z,16.36
2023-02-05T00:23:47.200Z,16.36
2023-02-05T00:24:18.597Z,16.35
2023-02-05T00:24:50.023Z,16.35
2023-02-05T00:25:21.494Z,16.33
2023-02-05T00:25:52.898Z,16.34
2023-02-05T00:26:24.291Z,16.33
2023-02-05T00:26:55.695Z,16.32
2023-02-05T00:27:27.087Z,16.31
2023-02-05T00:27:58.533Z,16.30
2023-02-05T00:28:29.958Z,16.31
2023-02-05T00:29:01.351Z,16.31
2023-02-05T00:29:32.759Z,16.30
2023-02-05T00:30:04.196Z,16.29
2023-02-05T00:30:35.717Z,16.29
2023-02-05T00:31:07.250Z,16.28
2023-02-05T00:31:38.849Z,16.28
2023-02-05T00:32:10.312Z,16.29
2023-02-05T00:32:41.722Z,16.28
2023-02-05T00:33:13.131Z,16.26
2023-02-05T00:33:44.523Z,16.25
2023-02-05T00:34:15.939Z,16.26
2023-02-05T00:34:47.338Z,16.25
2023-02-05T00:35:18.794Z,16.26
2023-02-05T00:35:50.182Z,16.24
2023-02-05T00:36:21.631Z,16.24
2023-02-05T00:36:53.073Z,16.24
2023-02-05T00:37:24.464Z,16.23
2023-02-05T00:37:55.877Z,16.24
2023-02-05T00:38:27.274Z,16.24
2023-02-05T00:38:58.668Z,16.23
2023-02-05T00:39:30.077Z,16.23
2023-02-05T00:40:01.556Z,16.22
2023-02-05T00:40:33.015Z,16.22
2023-02-05T00:41:04.419Z,16.21
2023-02-05T00:41:35.843Z,16.22
2023-02-05T00:42:07.258Z,16.20
2023-02-05T00:42:38.704Z,16.21
2023-02-05T00:43:10.123Z,16.21
2023-02-05T00:43:41.547Z,16.21
2023-02-05T00:44:12.940Z,16.20
2023-02-05T00:44:44.327Z,16.18
2023-02-05T00:45:15.770Z,16.18
2023-02-05T00:45:47.227Z,16.19
2023-02-05T00:46:18.668Z,16.18
2023-02-05T00:46:50.075Z,16.19
2023-02-05T00:47:21.463Z,16.17
2023-02-05T00:47:52.876Z,16.15
2023-02-05T00:48:24.272Z,16.16
2023-02-05T00:48:55.662Z,16.17
2023-02-05T00:49:27.066Z,16.15
2023-02-05T00:49:58.513Z,16.16
2023-02-05T00:50:29.907Z,16.14
2023-02-05T00:51:01.367Z,16.14
2023-02-05T00:51:32.786Z,16.14
2023-02-05T00:52:04.199Z,16.15
2023-02-05T00:52:35.616Z,16.14
2023-02-05T00:53:07.065Z,16.13
2023-02-05T00:53:38.480Z,16.13
2023-02-05T00:54:09.911Z,16.12
2023-02-05T00:54:41.298Z,16.11
2023-02-05T00:55:12.700Z,16.10
2023-02-05T00:55:44.118Z,16.10
2023-02-05T00:56:15.646Z,16.10
2023-02-05T00:56:47.189Z,16.10
2023-02-05T00:57:18.595Z,16.09
2023-02-05T00:57:49.995Z,16.09
2023-02-05T00:58:21.418Z,16.08
2023-02-05T00:58:52.833Z,16.08
2023-02-05T00:59:24.241Z,16.08
2023-02-05T00:59:55.656Z,16.08
2023-02-05T01:00:27.105Z,16.07
2023-02-05T01:00:58.525Z,16.06
2023-02-05T01:01:30.001Z,16.06
2023-02-05T01:02:01.431Z,16.05
2023-02-05T01:02:32.880Z,16.05
2023-02-05T01:03:04.342Z,16.04
2023-02-05T01:03:35.740Z,16.04
2023-02-05T01:04:07.151Z,16.03
2023-02-05T01:04:38.553Z,16.03
2023-02-05T01:05:10.016Z,16.03
2023-02-05T01:05:41.434Z,16.01
2023-02-05T01:06:12.838Z,16.01
2023-02-05T01:06:44.241Z,16.02
2023-02-05T01:07:15.763Z,16.01
2023-02-05T01:07:47.187Z,16.01
2023-02-05T01:08:18.587Z,16.00
2023-02-05T01:08:50.042Z,16.00
2023-02-05T01:09:21.453Z,15.98
2023-02-05T01:09:52.838Z,15.97
2023-02-05T01:10:24.283Z,15.98
2023-02-05T01:10:55.680Z,15.99
2023-02-05T01:11:27.090Z,15.98
2023-02-05T01:11:58.482Z,15.96
2023-02-05T01:12:29.952Z,15.96
2023-02-05T01:13:01.343Z,15.96
2023-02-05T01:13:32.740Z,15.96
2023-02-05T01:14:04.137Z,15.96
2023-02-05T01:14:35.526Z,15.96
2023-02-05T01:15:07.162Z,15.96
2023-02-05T01:15:38.716Z,15.95
2023-02-05T01:16:10.266Z,15.95
2023-02-05T01:16:41.717Z,15.94
2023-02-05T01:17:13.128Z,15.94
2023-02-05T01:17:44.539Z,15.93
2023-02-05T01:18:15.928Z,15.94
2023-02-05T01:18:47.342Z,15.93
2023-02-05T01:19:18.750Z,15.93
2023-02-05T01:19:50.134Z,15.93
2023-02-05T01:20:21.558Z,15.94
2023-02-05T01:20:53.012Z,15.91
2023-02-05T01:21:24.406Z,15.92
2023-02-05T01:21:55.794Z,15.90
2023-02-05T01:22:27.182Z,15.89
2023-02-05T01:22:58.590Z,15.88
2023-02-05T01:23:29.990Z,15.87
2023-02-05T01:24:01.399Z,15.88
2023-02-05T01:24:32.795Z,15.87
2023-02-05T01:25:04.187Z,15.87
2023-02-05T01:25:35.790Z,15.86
2023-02-05T01:26:07.278Z,15.87
2023-02-05T01:26:38.673Z,15.86
2023-02-05T01:27:10.060Z,15.86
2023-02-05T01:27:41.485Z,15.86
2023-02-05T01:28:12.944Z,15.85
2023-02-05T01:28:44.366Z,15.85
2023-02-05T01:29:15.778Z,15.84
2023-02-05T01:29:47.186Z,15.84
2023-02-05T01:30:18.622Z,15.84
2023-02-05T01:30:50.143Z,15.84
2023-02-05T01:31:21.670Z,15.83
2023-02-05T01:31:53.165Z,15.81
2023-02-05T01:32:24.662Z,15.82
2023-02-05T01:32:56.051Z,15.81
2023-02-05T01:33:27.456Z,15.81
2023-02-05T01:33:58.925Z,15.80
2023-02-05T01:34:30.350Z,15.80
2023-02-05T01:35:01.759Z,15.80
2023-02-05T01:35:33.534Z,15.79
2023-02-05T01:36:05.106Z,15.81
2023-02-05T01:36:36.519Z,15.81
2023-02-05T01:37:07.913Z,15.79
2023-02-05T01:37:39.330Z,15.80
2023-02-05T01:38:10.738Z,15.78
2023-02-05T01:38:42.150Z,15.78
2023-02-05T01:39:13.572Z,15.76
2023-02-05T01:39:44.966Z,15.76
2023-02-05T01:40:16.373Z,15.75
2023-02-05T01:40:47.805Z,15.76
2023-02-05T01:41:19.195Z,15.76
2023-02-05T01:41:50.633Z,15.74
2023-02-05T01:42:22.038Z,15.74
2023-02-05T01:42:53.449Z,15.74
2023-02-05T01:43:24.856Z,15.75
2023-02-05T01:43:56.267Z,15.74
2023-02-05T01:44:27.684Z,15.73
2023-02-05T01:44:59.107Z,15.73
2023-02-05T01:45:30.537Z,15.74
2023-02-05T01:46:01.996Z,15.73
2023-02-05T01:46:33.411Z,15.72
2023-02-05T01:47:04.891Z,15.72
2023-02-05T01:47:36.302Z,15.71
2023-02-05T01:48:07.711Z,15.71
2023-02-05T01:48:39.101Z,15.71
2023-02-05T01:49:10.496Z,15.70
2023-02-05T01:49:41.928Z,15.70
2023-02-05T01:50:13.347Z,15.69
2023-02-05T01:50:44.797Z,15.69
2023-02-05T01:51:16.196Z,15.70
2023-02-05T01:51:47.586Z,15.69
2023-02-05T01:52:19.002Z,15.69
2023-02-05T01:52:50.422Z,15.69
2023-02-05T01:53:21.823Z,15.68
2023-02-05T01:53:53.238Z,15.67
2023-02-05T01:54:24.655Z,15.68
2023-02-05T01:54:56.067Z,15.66
2023-02-05T01:55:27.472Z,15.66
2023-02-05T01:55:58.903Z,15.65
2023-02-05T01:56:30.314Z,15.66
2023-02-05T01:57:01.721Z,15.66
2023-02-05T01:57:33.148Z,15.66
2023-02-05T01:58:04.544Z,15.65
2023-02-05T01:58:35.937Z,15.65
2023-02-05T01:59:09.351Z,15.64
2023-02-05T01:59:40.903Z,15.65
2023-02-05T02:00:12.299Z,15.64
2023-02-05T02:00:43.711Z,15.64
2023-02-05T02:01:15.155Z,15.64
2023-02-05T02:01:46.617Z,15.64
2023-02-05T02:02:18.058Z,15.62
2023-02-05T02:02:49.507Z,15.62
2023-02-05T02:03:20.919Z,15.61
2023-02-05T02:03:52.312Z,15.63
2023-02-05T02:04:23.718Z,15.61
2023-02-05T02:04:55.155Z,15.64
2023-02-05T02:05:26.613Z,15.63
2023-02-05T02:05:58.027Z,15.60
2023-02-05T02:06:29.447Z,15.60
2023-02-05T02:07:00.874Z,15.61
2023-02-05T02:07:32.270Z,15.60
2023-02-05T02:08:03.721Z,15.60
2023-02-05T02:08:35.130Z,15.59
2023-02-05T02:09:06.616Z,15.59
2023-02-05T02:09:38.018Z,15.57
2023-02-05T02:10:09.421Z,15.57
2023-02-05T02:10:40.822Z,15.57
2023-02-05T02:11:12.253Z,15.57
2023-02-05T02:11:43.693Z,15.56
2023-02-05T02:12:15.107Z,15.56
2023-02-05T02:12:46.520Z,15.56
2023-02-05T02:13:17.947Z,15.56
2023-02-05T02:13:49.374Z,15.55
2023-02-05T02:14:20.791Z,15.54
2023-02-05T02:14:52.205Z,15.54
2023-02-05T02:15:23.644Z,15.54
2023-02-05T02:15:55.086Z,15.54
2023-02-05T02:16:26.562Z,15.53
2023-02-05T02:16:57.961Z,15.52
2023-02-05T02:17:29.371Z,15.51
2023-02-05T02:18:00.778Z,15.51
2023-02-05T02:18:32.167Z,15.51
2023-02-05T02:19:03.564Z,15.51
2023-02-05T02:19:34.976Z,15.50
2023-02-05T02:20:06.400Z,15.50
2023-02-05T02:20:37.796Z,15.49
2023-02-05T02:21:09.185Z,15.48
2023-02-05T02:21:40.592Z,15.48
2023-02-05T02:22:11.994Z,15.46
2023-02-05T02:22:43.397Z,15.47
2023-02-05T02:23:14.791Z,15.47
2023-02-05T02:23:46.215Z,15.47
2023-02-05T02:24:17.633Z,15.46
2023-02-05T02:24:49.044Z,15.47
2023-02-05T02:25:20.433Z,15.46
2023-02-05T02:25:51.849Z,15.45
2023-02-05T02:26:23.267Z,15.46
2023-02-05T02:26:54.726Z,15.44
2023-02-05T02:27:26.119Z,15.44
2023-02-05T02:27:57.567Z,15.44
2023-02-05T02:28:28.961Z,15.42
2023-02-05T02:29:00.364Z,15.42
2023-02-05T02:29:31.775Z,15.42
2023-02-05T02:30:03.179Z,15.41
2023-02-05T02:30:34.594Z,15.41
2023-02-05T02:31:06.054Z,15.41
2023-02-05T02:31:37.524Z,15.40
2023-02-05T02:32:08.970Z,15.40
2023-02-05T02:32:40.367Z,15.39
2023-02-05T02:33:11.764Z,15.40
2023-02-05T02:33:43.152Z,15.39
2023-02-05T02:34:14.547Z,15.40
2023-02-05T02:34:45.950Z,15.38
2023-02-05T02:35:17.369Z,15.38
2023-02-05T02:35:48.806Z,15.39
2023-02-05T02:36:20.223Z,15.38
2023-02-05T02:36:51.620Z,15.38
2023-02-05T02:37:23.026Z,15.38
2023-02-05T02:37:54.453Z,15.39
2023-02-05T02:38:25.861Z,15.37
2023-02-05T02:38:57.266Z,15.37
2023-02-05T02:39:28.656Z,15.36
2023-02-05T02:40:00.071Z,15.37
2023-02-05T02:40:31.511Z,15.37
2023-02-05T02:41:02.922Z,15.36
2023-02-05T02:41:34.352Z,15.35
2023-02-05T02:42:05.743Z,15.35
2023-02-05T02:42:37.159Z,15.35
2023-02-05T02:43:08.582Z,15.35
2023-02-05T02:43:40.002Z,15.35
2023-02-05T02:44:11.416Z,15.33
2023-02-05T02:44:42.816Z,15.33
2023-02-05T02:45:14.246Z,15.33
2023-02-05T02:45:45.637Z,15.32
2023-02-05T02:46:17.079Z,15.32
2023-02-05T02:46:48.551Z,15.31
2023-02-05T02:47:20.023Z,15.33
2023-02-05T02:47:51.440Z,15.32
2023-02-05T02:48:22.831Z,15.33
2023-02-05T02:48:54.827Z,15.30
2023-02-05T02:49:27.122Z,15.32
2023-02-05T02:49:58.533Z,15.30
2023-02-05T02:50:29.934Z,15.31
2023-02-05T02:51:01.352Z,15.30
2023-02-05T02:51:32.754Z,15.29
2023-02-05T02:52:04.175Z,15.29
2023-02-05T02:52:35.590Z,15.29
2023-02-05T02:53:06.999Z,15.29
2023-02-05T02:53:38.383Z,15.28
2023-02-05T02:54:09.776Z,15.28
2023-02-05T02:54:41.184Z,15.29
2023-02-05T02:55:12.584Z,15.27
2023-02-05T02:55:44.024Z,15.27
2023-02-05T02:56:15.419Z,15.27
2023-02-05T02:56:46.827Z,15.26
2023-02-05T02:57:18.234Z,15.25
2023-02-05T02:57:49.650Z,15.25
2023-02-05T02:58:21.063Z,15.25
2023-02-05T02:58:52.454Z,15.26
2023-02-05T02:59:23.856Z,15.24
2023-02-05T02:59:55.265Z,15.25
2023-02-05T03:00:26.711Z,15.24
2023-02-05T03:00:58.206Z,15.24
2023-02-05T03:01:29.618Z,15.24
2023-02-05T03:02:01.034Z,15.24
2023-02-05T03:02:32.530Z,15.23
2023-02-05T03:03:03.942Z,15.22
2023-02-05T03:03:35.378Z,15.21
2023-02-05T03:04:06.819Z,15.21
2023-02-05T03:04:38.243Z,15.20
2023-02-05T03:05:09.649Z,15.20
2023-02-05T03:05:41.076Z,15.20
2023-02-05T03:06:12.550Z,15.19
2023-02-05T03:06:43.962Z,15.19
2023-02-05T03:07:15.364Z,15.19
2023-02-05T03:07:46.806Z,15.18
2023-02-05T03:08:18.195Z,15.18
2023-02-05T03:08:49.607Z,15.18
2023-02-05T03:09:21.019Z,15.18
2023-02-05T03:09:52.445Z,15.18
2023-02-05T03:10:23.842Z,15.18
2023-02-05T03:10:55.251Z,15.17
2023-02-05T03:11:26.662Z,15.16
2023-02-05T03:11:58.067Z,15.17
2023-02-05T03:12:29.487Z,15.16
2023-02-05T03:13:00.940Z,15.17
2023-02-05T03:13:32.346Z,15.16
2023-02-05T03:14:03.746Z,15.16
2023-02-05T03:14:35.163Z,15.15
2023-02-05T03:15:06.572Z,15.15
2023-02-05T03:15:37.963Z,15.15
2023-02-05T03:16:09.413Z,15.14
2023-02-05T03:16:40.835Z,15.14
2023-02-05T03:17:12.257Z,15.15
2023-02-05T03:17:43.667Z,15.14
2023-02-05T03:18:15.090Z,15.13
2023-02-05T03:18:46.482Z,15.12
2023-02-05T03:19:18.015Z,15.12
2023-02-05T03:19:49.444Z,15.12
2023-02-05T03:20:20.841Z,15.11
2023-02-05T03:20:52.250Z,15.12
2023-02-05T03:21:23.642Z,15.11
2023-02-05T03:21:55.059Z,15.11
2023-02-05T03:22:26.489Z,15.11
2023-02-05T03:22:57.907Z,15.11
2023-02-05T03:23:29.346Z,15.09
2023-02-05T03:24:00.774Z,15.10
2023-02-05T03:24:32.179Z,15.09
2023-02-05T03:25:03.586Z,15.09
2023-02-05T03:25:35.254Z,15.08
2023-02-05T03:26:06.803Z,15.07
2023-02-05T03:26:38.213Z,15.06
2023-02-05T03:27:09.642Z,15.06
2023-02-05T03:27:41.060Z,15.06
2023-02-05T03:28:12.596Z,15.05
2023-02-05T03:28:44.039Z,15.05
2023-02-05T03:29:15.441Z,15.05
2023-02-05T03:29:46.831Z,15.04
2023-02-05T03:30:18.243Z,15.05
2023-02-05T03:30:49.776Z,15.06
2023-02-05T03:31:21.213Z,15.05
2023-02-05T03:31:52.675Z,15.04
2023-02-05T03:32:24.124Z,15.04
2023-02-05T03:32:55.547Z,15.03
2023-02-05T03:33:26.979Z,15.02
2023-02-05T03:33:58.405Z,15.02
2023-02-05T03:34:29.819Z,15.03
2023-02-05T03:35:01.236Z,15.05
2023-02-05T03:35:33.153Z,15.02
2023-02-05T03:36:04.782Z,15.01
2023-02-05T03:36:36.187Z,15.02
2023-02-05T03:37:07.578Z,15.01
2023-02-05T03:37:38.980Z,15.01
2023-02-05T03:38:10.390Z,15.02
2023-02-05T03:38:41.842Z,15.01
2023-02-05T03:39:13.258Z,15.01
2023-02-05T03:39:44.662Z,15.00
2023-02-05T03:40:16.076Z,14.99
2023-02-05T03:40:47.483Z,15.00
2023-02-05T03:41:18.880Z,14.99
2023-02-05T03:41:50.294Z,15.00
2023-02-05T03:42:21.713Z,14.99
2023-02-05T03:42:53.122Z,14.98
2023-02-05T03:43:24.532Z,14.97
2023-02-05T03:43:55.966Z,14.98
2023-02-05T03:44:27.355Z,14.98
2023-02-05T03:44:58.770Z,14.98
2023-02-05T03:45:30.230Z,14.96
2023-02-05T03:46:01.643Z,14.97
2023-02-05T03:46:33.087Z,14.98
2023-02-05T03:47:04.496Z,14.97
2023-02-05T03:47:35.933Z,14.96
2023-02-05T03:48:07.374Z,14.97
2023-02-05T03:48:38.775Z,14.95
2023-02-05T03:49:10.234Z,14.95
2023-02-05T03:49:41.631Z,14.95
2023-02-05T03:50:13.042Z,14.95
2023-02-05T03:50:44.437Z,14.94
2023-02-05T03:51:15.855Z,14.93
2023-02-05T03:51:47.257Z,14.94
2023-02-05T03:52:18.708Z,14.95
2023-02-05T03:52:50.115Z,14.93
2023-02-05T03:53:21.543Z,14.93
2023-02-05T03:53:52.957Z,14.92
2023-02-05T03:54:24.395Z,14.92
2023-02-05T03:54:55.815Z,14.92
2023-02-05T03:55:27.227Z,14.92
2023-02-05T03:55:58.644Z,14.92
2023-02-05T03:56:30.038Z,14.92
2023-02-05T03:57:01.431Z,14.91
2023-02-05T03:57:32.859Z,14.89
2023-02-05T03:58:04.262Z,14.90
2023-02-05T03:58:35.669Z,14.90
2023-02-05T03:59:07.099Z,14.89
2023-02-05T03:59:38.556Z,14.89
2023-02-05T04:00:09.966Z,14.88
2023-02-05T04:00:41.370Z,14.89
2023-02-05T04:01:12.832Z,14.89
2023-02-05T04:01:44.246Z,14.89
2023-02-05T04:02:15.679Z,14.89
2023-02-05T04:02:47.101Z,14.89
2023-02-05T04:03:18.524Z,14.88
2023-02-05T04:03:49.913Z,14.87
2023-02-05T04:04:21.340Z,14.89
2023-02-05T04:04:52.762Z,14.87
2023-02-05T04:05:24.173Z,14.87
2023-02-05T04:05:55.574Z,14.86
2023-02-05T04:06:26.984Z,14.86
2023-02-05T04:06:58.382Z,14.87
2023-02-05T04:07:29.786Z,14.85
2023-02-05T04:08:01.181Z,14.85
2023-02-05T04:08:32.604Z,14.85
2023-02-05T04:09:04.059Z,14.85
2023-02-05T04:09:35.477Z,14.84
2023-02-05T04:10:06.921Z,14.85
2023-02-05T04:10:38.321Z,14.85
2023-02-05T04:11:09.741Z,14.84
2023-02-05T04:11:41.170Z,14.83
2023-02-05T04:12:12.562Z,14.82
2023-02-05T04:12:43.983Z,14.83
2023-02-05T04:13:15.372Z,14.83
2023-02-05T04:13:46.773Z,14.82
2023-02-05T04:14:18.182Z,14.81
2023-02-05T04:14:49.613Z,14.81
2023-02-05T04:15:21.034Z,14.81
2023-02-05T04:15:52.435Z,14.81
2023-02-05T04:16:23.904Z,14.81
2023-02-05T04:16:55.325Z,14.80
2023-02-05T04:17:26.719Z,14.80
2023-02-05T04:17:58.138Z,14.80
2023-02-05T04:18:29.551Z,14.78
2023-02-05T04:19:00.963Z,14.78
2023-02-05T04:19:32.370Z,14.78
2023-02-05T04:20:03.807Z,14.77
2023-02-05T04:20:35.213Z,14.77
2023-02-05T04:21:06.607Z,14.77
2023-02-05T04:21:38.024Z,14.76
2023-02-05T04:22:09.423Z,14.76
2023-02-05T04:22:40.824Z,14.76
2023-02-05T04:23:12.210Z,14.76
2023-02-05T04:23:43.627Z,14.74
2023-02-05T04:24:15.056Z,14.73
2023-02-05T04:24:46.535Z,14.76
2023-02-05T04:25:17.934Z,14.75
2023-02-05T04:25:49.424Z,14.74
2023-02-05T04:26:20.831Z,14.73
2023-02-05T04:26:52.242Z,14.72
2023-02-05T04:27:23.713Z,14.73
2023-02-05T04:27:55.145Z,14.72
2023-02-05T04:28:26.583Z,14.72
2023-02-05T04:28:58.009Z,14.71
2023-02-05T04:29:29.423Z,14.70
2023-02-05T04:30:00.867Z,14.70
2023-02-05T04:30:32.331Z,14.70
2023-02-05T04:31:03.833Z,14.69
2023-02-05T04:31:35.319Z,14.70
2023-02-05T04:32:06.731Z,14.69
2023-02-05T04:32:38.152Z,14.69
2023-02-05T04:33:09.545Z,14.70
2023-02-05T04:33:40.946Z,14.68
2023-02-05T04:34:12.342Z,14.68
2023-02-05T04:34:43.734Z,14.67
2023-02-05T04:35:15.146Z,14.67
2023-02-05T04:35:46.579Z,14.67
2023-02-05T04:36:17.994Z,14.67
2023-02-05T04:36:49.402Z,14.66
2023-02-05T04:37:20.812Z,14.66
2023-02-05T04:37:52.213Z,14.66
2023-02-05T04:38:23.603Z,14.66
2023-02-05T04:38:55.008Z,14.65
2023-02-05T04:39:26.422Z,14.64
2023-02-05T04:39:57.872Z,14.65
2023-02-05T04:40:29.278Z,14.64
2023-02-05T04:41:00.672Z,14.64
2023-02-05T04:41:32.103Z,14.64
2023-02-05T04:42:03.507Z,14.63
2023-02-05T04:42:34.893Z,14.64
2023-02-05T04:43:06.303Z,14.64
2023-02-05T04:43:37.706Z,14.61
2023-02-05T04:44:09.105Z,14.62
2023-02-05T04:44:40.522Z,14.62
2023-02-05T04:45:11.972Z,14.62
2023-02-05T04:45:43.407Z,14.62
2023-02-05T04:46:14.868Z,14.61
2023-02-05T04:46:46.276Z,14.62
2023-02-05T04:47:17.671Z,14.62
2023-02-05T04:47:49.058Z,14.60
2023-02-05T04:48:20.456Z,14.60
2023-02-05T04:48:51.858Z,14.59
2023-02-05T04:49:23.248Z,14.60
2023-02-05T04:49:54.672Z,14.60
2023-02-05T04:50:26.099Z,14.59
2023-02-05T04:50:57.508Z,14.58
2023-02-05T04:51:28.904Z,14.58
2023-02-05T04:52:00.294Z,14.58
2023-02-05T04:52:31.708Z,14.58
2023-02-05T04:53:03.101Z,14.58
2023-02-05T04:53:34.497Z,14.57
2023-02-05T04:54:05.902Z,14.57
2023-02-05T04:54:37.329Z,14.57
2023-02-05T04:55:08.754Z,14.55
2023-02-05T04:55:40.556Z,14.55
2023-02-05T04:56:11.987Z,14.56
2023-02-05T04:56:43.389Z,14.56
2023-02-05T04:57:14.795Z,14.55
2023-02-05T04:57:46.202Z,14.55
2023-02-05T04:58:17.589Z,14.55
2023-02-05T04:58:48.984Z,14.53
2023-02-05T04:59:20.378Z,14.53
2023-02-05T04:59:51.796Z,14.53
2023-02-05T05:00:23.214Z,14.53
2023-02-05T05:00:54.705Z,14.52
2023-02-05T05:01:29.092Z,14.52
2023-02-05T05:02:00.538Z,14.51
2023-02-05T05:02:31.971Z,14.52
2023-02-05T05:03:03.403Z,14.49
2023-02-05T05:03:34.821Z,14.50
2023-02-05T05:04:06.234Z,14.50
2023-02-05T05:04:37.647Z,14.49
2023-02-05T05:05:09.092Z,14.50
2023-02-05T05:05:40.493Z,14.49
2023-02-05T05:06:11.887Z,14.49
2023-02-05T05:06:43.292Z,14.49
2023-02-05T05:07:14.737Z,14.49
2023-02-05T05:07:46.153Z,14.48
2023-02-05T05:08:17.549Z,14.48
2023-02-05T05:08:48.953Z,14.47
2023-02-05T05:09:20.362Z,14.48
2023-02-05T05:09:52.564Z,14.48
2023-02-05T05:10:24.103Z,14.46
2023-02-05T05:10:55.499Z,14.46
2023-02-05T05:11:26.897Z,14.46
2023-02-05T05:11:58.287Z,14.45
2023-02-05T05:12:29.706Z,14.45
2023-02-05T05:13:01.184Z,14.45
2023-02-05T05:13:32.597Z,14.45
2023-02-05T05:14:04.014Z,14.45
2023-02-05T05:14:35.408Z,14.44
2023-02-05T05:15:06.809Z,14.44
2023-02-05T05:15:38.308Z,14.43
2023-02-05T05:16:09.771Z,14.43
2023-02-05T05:16:41.188Z,14.44
2023-02-05T05:17:12.588Z,14.42
2023-02-05T05:17:44.000Z,14.42
2023-02-05T05:18:15.387Z,14.42
2023-02-05T05:18:46.785Z,14.42
2023-02-05T05:19:18.176Z,14.41
2023-02-05T05:19:49.683Z,14.40
2023-02-05T05:20:21.089Z,14.39
2023-02-05T05:20:52.512Z,14.40
2023-02-05T05:21:23.921Z,14.39
2023-02-05T05:21:55.315Z,14.40
2023-02-05T05:22:26.723Z,14.40
2023-02-05T05:22:58.127Z,14.39
2023-02-05T05:23:29.558Z,14.39
2023-02-05T05:24:00.955Z,14.39
2023-02-05T05:24:32.682Z,14.38
2023-02-05T05:25:04.097Z,14.38
2023-02-05T05:25:35.714Z,14.38
2023-02-05T05:26:07.346Z,14.38
2023-02-05T05:26:38.762Z,14.37
2023-02-05T05:27:10.152Z,14.37
2023-02-05T05:27:41.588Z,14.36
2023-02-05T05:28:13.054Z,14.36
2023-02-05T05:28:44.506Z,14.36
2023-02-05T05:29:15.917Z,14.35
2023-02-05T05:29:47.335Z,14.35
2023-02-05T05:30:18.764Z,14.35
2023-02-05T05:30:50.196Z,14.34
2023-02-05T05:31:21.745Z,14.34
2023-02-05T05:31:53.183Z,14.34
2023-02-05T05:32:24.611Z,14.33
2023-02-05T05:32:56.023Z,14.33
2023-02-05T05:33:27.452Z,14.32
2023-02-05T05:33:58.858Z,14.34
2023-02-05T05:34:30.275Z,14.31
2023-02-05T05:35:01.676Z,14.32
2023-02-05T05:35:33.420Z,14.32
2023-02-05T05:36:04.972Z,14.32
2023-02-05T05:36:36.381Z,14.31
2023-02-05T05:37:07.804Z,14.31
2023-02-05T05:37:39.197Z,14.30
2023-02-05T05:38:10.621Z,14.30
2023-02-05T05:38:42.047Z,14.30
2023-02-05T05:39:13.456Z,14.29
2023-02-05T05:39:44.862Z,14.30
2023-02-05T05:40:16.281Z,14.29
2023-02-05T05:40:47.711Z,14.28
2023-02-05T05:41:19.111Z,14.28
2023-02-05T05:41:50.562Z,14.29
2023-02-05T05:42:21.956Z,14.27
2023-02-05T05:42:53.377Z,14.28
2023-02-05T05:43:24.788Z,14.28
2023-02-05T05:43:56.178Z,14.27
2023-02-05T05:44:27.584Z,14.27
2023-02-05T05:44:58.997Z,14.26
2023-02-05T05:45:30.409Z,14.25
2023-02-05T05:46:01.829Z,14.25
2023-02-05T05:46:33.279Z,14.25
2023-02-05T05:47:04.734Z,14.25
2023-02-05T05:47:36.128Z,14.25
2023-02-05T05:48:07.532Z,14.24
2023-02-05T05:48:38.947Z,14.23
2023-02-05T05:49:10.366Z,14.24
2023-02-05T05:49:41.783Z,14.22
2023-02-05T05:50:13.171Z,14.23
2023-02-05T05:50:44.626Z,14.23
2023-02-05T05:51:16.101Z,14.23
2023-02-05T05:51:47.495Z,14.22
2023-02-05T05:52:18.919Z,14.22
2023-02-05T05:52:50.316Z,14.22
2023-02-05T05:53:21.726Z,14.21
2023-02-05T05:53:53.120Z,14.21
2023-02-05T05:54:24.508Z,14.20
2023-02-05T05:54:55.908Z,14.21
2023-02-05T05:55:27.305Z,14.20
2023-02-05T05:55:58.766Z,14.19
2023-02-05T05:56:30.175Z,14.19
2023-02-05T05:57:01.602Z,14.19
2023-02-05T05:57:33.058Z,14.18
2023-02-05T05:58:06.297Z,14.17
2023-02-05T05:58:38.386Z,14.17
2023-02-05T05:59:09.798Z,14.17
2023-02-05T05:59:41.217Z,14.16
2023-02-05T06:00:12.631Z,14.17
2023-02-05T06:00:44.043Z,14.17
2023-02-05T06:01:15.457Z,14.15
2023-02-05T06:01:46.847Z,14.16
2023-02-05T06:02:18.271Z,14.15
2023-02-05T06:02:49.838Z,14.15
2023-02-05T06:03:21.317Z,14.14
2023-02-05T06:03:52.711Z,14.14
2023-02-05T06:04:24.122Z,14.13
2023-02-05T06:04:55.527Z,14.14
2023-02-05T06:05:26.919Z,14.13
2023-02-05T06:05:58.338Z,14.12
2023-02-05T06:06:29.733Z,14.11
2023-02-05T06:07:01.155Z,14.12
2023-02-05T06:07:32.552Z,14.10
2023-02-05T06:08:03.980Z,14.11
2023-02-05T06:08:35.412Z,14.09
2023-02-05T06:09:06.825Z,14.09
2023-02-05T06:09:38.220Z,14.07
2023-02-05T06:10:09.628Z,14.09
2023-02-05T06:10:41.034Z,14.07
2023-02-05T06:11:12.429Z,14.07
2023-02-05T06:11:43.837Z,14.08
2023-02-05T06:12:15.250Z,14.07
2023-02-05T06:12:46.650Z,14.07
2023-02-05T06:13:18.052Z,14.07
2023-02-05T06:13:49.474Z,14.06
2023-02-05T06:14:20.896Z,14.06
2023-02-05T06:14:52.299Z,14.05
2023-02-05T06:15:23.689Z,14.04
2023-02-05T06:15:55.167Z,14.03
2023-02-05T06:16:26.648Z,14.04
2023-02-05T06:16:58.069Z,14.03
2023-02-05T06:17:29.487Z,14.04
2023-02-05T06:18:00.906Z,14.05
2023-02-05T06:18:32.295Z,14.03
2023-02-05T06:19:03.698Z,14.03
2023-02-05T06:19:35.096Z,14.02
2023-02-05T06:20:06.495Z,14.02
2023-02-05T06:20:37.884Z,14.02
2023-02-05T06:21:09.312Z,14.02
2023-02-05T06:21:40.706Z,14.02
2023-02-05T06:22:12.113Z,14.02
2023-02-05T06:22:43.532Z,14.02
2023-02-05T06:23:14.950Z,14.02
2023-02-05T06:23:46.338Z,14.02
2023-02-05T06:24:17.748Z,14.01
2023-02-05T06:24:49.156Z,14.02
2023-02-05T06:25:20.578Z,14.03
2023-02-05T06:25:51.982Z,14.05
2023-02-05T06:26:23.416Z,14.05
2023-02-05T06:26:54.819Z,14.04
2023-02-05T06:27:26.215Z,14.05
2023-02-05T06:27:57.662Z,14.04
2023-02-05T06:28:29.104Z,14.05
2023-02-05T06:29:00.498Z,14.07
2023-02-05T06:29:31.916Z,14.06
2023-02-05T06:30:03.320Z,14.06
2023-02-05T06:30:34.715Z,14.08
2023-02-05T06:31:06.215Z,14.07
2023-02-05T06:31:37.817Z,14.08
2023-02-05T06:32:09.278Z,14.08
2023-02-05T06:32:40.661Z,14.09
2023-02-05T06:33:12.084Z,14.10
2023-02-05T06:33:43.495Z,14.10
2023-02-05T06:34:14.898Z,14.10
2023-02-05T06:34:46.308Z,14.10
2023-02-05T06:35:17.712Z,14.10
2023-02-05T06:35:49.120Z,14.11
2023-02-05T06:36:20.542Z,14.11
2023-02-05T06:36:51.966Z,14.13
2023-02-05T06:37:26.812Z,14.12
2023-02-05T06:38:00.322Z,14.14
2023-02-05T06:38:31.722Z,14.14
2023-02-05T06:39:03.128Z,14.15
2023-02-05T06:39:34.579Z,14.16
2023-02-05T06:40:05.976Z,14.16
2023-02-05T06:40:37.391Z,14.15
2023-02-05T06:41:08.794Z,14.16
2023-02-05T06:41:40.197Z,14.18
2023-02-05T06:42:11.619Z,14.16
2023-02-05T06:42:43.033Z,14.19
2023-02-05T06:43:14.427Z,14.20
2023-02-05T06:43:45.827Z,14.20
2023-02-05T06:44:17.228Z,14.20
2023-02-05T06:44:48.625Z,14.21